Rowe, Massachusetts
Current Conditions -  °F | °C
As of 2:52 PM on Friday 31 Oct 2014 (Local Time) from KAQW Reporting Station
Overcast Overcast  
Wind Chill: 46°   Ceiling: 4500
Heat Index: 49°   Visibility: 10mi
Dew Point: 35°   Wind: 7mph
Humidity: 59%   Direction: 100°E
Pressure: 29.96"   Gusts: NA
Location:  42.69°N, 72.9°W
Report Text: KAQW 311852Z AUTO 10006KT 10SM OVC045 09/02 A2996 RMK AO2 SLP150 T00940017
Loading
Personal Weather Stations






























Interactive Weather Map
Tropical Storm Tracking
New forecast layout! Learn more

10-Day Weather Forecast

Advertisements
Track Severe Weather on mobile